createdAt,value
2019-02-05T00:04:19.018Z,9.80
2019-02-05T00:06:49.285Z,7.93
2019-02-05T00:09:19.702Z,8.30
2019-02-05T00:11:50.078Z,7.87
2019-02-05T00:14:20.464Z,9.57
2019-02-05T00:16:50.842Z,8.07
2019-02-05T00:19:21.267Z,9.47
2019-02-05T00:21:51.639Z,7.40
2019-02-05T00:24:21.989Z,10.70
2019-02-05T00:26:52.480Z,6.93
2019-02-05T00:29:23.054Z,8.10
2019-02-05T00:31:53.703Z,9.27
2019-02-05T00:34:24.029Z,6.97
2019-02-05T00:36:54.474Z,6.00
2019-02-05T00:39:24.869Z,7.43
2019-02-05T00:42:57.725Z,8.73
2019-02-05T00:46:02.033Z,8.50
2019-02-05T00:51:28.669Z,9.73
2019-02-05T00:57:38.731Z,7.27
2019-02-05T01:05:04.529Z,6.37
2019-02-05T01:08:21.747Z,9.50
2019-02-05T01:30:11.546Z,11.23
2019-02-05T01:32:42.001Z,10.97
2019-02-05T01:35:12.574Z,7.33
2019-02-05T01:40:36.348Z,9.83
2019-02-05T01:43:06.687Z,7.43
2019-02-05T01:45:37.038Z,8.17
2019-02-05T01:49:03.293Z,9.73
2019-02-05T01:51:33.661Z,9.63
2019-02-05T02:10:25.924Z,10.37
2019-02-05T02:12:56.488Z,10.53
2019-02-05T02:15:27.050Z,8.50
2019-02-05T02:17:57.467Z,8.43
2019-02-05T02:20:27.993Z,9.10
2019-02-05T02:22:58.680Z,8.83
2019-02-05T02:25:29.091Z,8.40
2019-02-05T02:27:59.594Z,8.93
2019-02-05T02:31:50.353Z,9.03
2019-02-05T02:34:20.718Z,11.40
2019-02-05T02:36:51.074Z,10.57
2019-02-05T02:39:21.524Z,8.77
2019-02-05T02:41:51.872Z,9.07
2019-02-05T02:45:38.808Z,8.97
2019-02-05T02:49:05.193Z,9.80
2019-02-05T02:55:25.628Z,10.53
2019-02-05T02:57:55.994Z,8.37
2019-02-05T03:00:26.378Z,7.60
2019-02-05T03:02:56.740Z,8.87
2019-02-05T03:05:27.553Z,14.63
2019-02-05T03:07:58.148Z,10.23
2019-02-05T03:10:30.572Z,7.90
2019-02-05T03:13:00.990Z,9.57
2019-02-05T03:15:31.449Z,7.03
2019-02-05T03:18:01.925Z,7.73
2019-02-05T03:20:32.840Z,10.07
2019-02-05T03:23:03.201Z,8.13
2019-02-05T03:29:19.222Z,10.03
2019-02-05T03:31:37.571Z,7.10
2019-02-05T03:34:27.119Z,6.60
2019-02-05T03:36:57.695Z,7.77
2019-02-05T03:39:28.677Z,10.60
2019-02-05T03:41:59.214Z,7.03
2019-02-05T03:44:29.672Z,11.37
2019-02-05T03:47:00.150Z,7.33
2019-02-05T03:49:30.568Z,12.53
2019-02-05T04:01:21.120Z,7.63
2019-02-05T04:04:52.783Z,10.90
2019-02-05T04:12:05.596Z,8.23
2019-02-05T04:25:41.523Z,8.30
2019-02-05T04:29:23.389Z,9.47
2019-02-05T04:33:19.593Z,8.30
2019-02-05T04:36:47.059Z,10.00
2019-02-05T04:40:37.172Z,8.93
2019-02-05T04:48:25.548Z,6.97
2019-02-05T04:52:01.585Z,8.47
2019-02-05T04:59:16.416Z,9.30
2019-02-05T05:02:13.934Z,10.07
2019-02-05T05:06:15.510Z,9.87
2019-02-05T05:09:36.230Z,9.57
2019-02-05T05:12:28.073Z,7.47
2019-02-05T05:18:15.316Z,14.47
2019-02-05T05:31:00.029Z,9.13
2019-02-05T05:33:30.307Z,9.33
2019-02-05T05:36:01.489Z,8.90
2019-02-05T05:38:32.080Z,11.80
2019-02-05T05:41:02.343Z,10.83
2019-02-05T05:43:32.807Z,10.07
2019-02-05T05:46:03.128Z,10.97
2019-02-05T05:48:33.950Z,8.67
2019-02-05T05:54:47.276Z,8.80
2019-02-05T05:58:21.866Z,8.07
2019-02-05T06:00:38.553Z,8.23
2019-02-05T06:03:09.096Z,9.37
2019-02-05T06:05:39.965Z,8.07
2019-02-05T06:08:10.783Z,9.47
2019-02-05T06:10:41.793Z,8.30
2019-02-05T06:13:12.338Z,8.63
2019-02-05T06:15:42.745Z,10.53
2019-02-05T06:18:13.074Z,6.87
2019-02-05T06:20:43.765Z,9.20
2019-02-05T06:23:14.113Z,12.93
2019-02-05T06:25:44.617Z,9.03
2019-02-05T06:28:15.136Z,8.97
2019-02-05T06:30:45.682Z,7.93
2019-02-05T06:36:36.605Z,10.53
2019-02-05T06:39:09.991Z,8.20
2019-02-05T06:41:40.602Z,8.83
2019-02-05T06:44:12.240Z,9.13
2019-02-05T06:49:34.266Z,9.33
2019-02-05T06:52:04.802Z,10.90
2019-02-05T06:57:45.819Z,10.53
2019-02-05T07:00:20.470Z,12.57
2019-02-05T07:03:09.838Z,9.13
2019-02-05T07:05:40.339Z,11.00
2019-02-05T07:08:10.770Z,10.53
2019-02-05T07:10:41.117Z,9.53
2019-02-05T07:13:12.535Z,10.37
2019-02-05T07:15:42.860Z,11.30
2019-02-05T07:18:13.218Z,12.07
2019-02-05T07:20:43.605Z,12.57
2019-02-05T07:23:14.080Z,9.70
2019-02-05T07:28:35.572Z,13.43
2019-02-05T07:33:56.711Z,13.17
2019-02-05T07:36:26.912Z,13.73
2019-02-05T07:38:57.370Z,14.67
2019-02-05T07:41:27.922Z,12.37
2019-02-05T07:43:58.445Z,11.80
2019-02-05T07:46:29.743Z,12.43
2019-02-05T07:49:00.833Z,14.20
2019-02-05T07:51:35.339Z,14.03
2019-02-05T07:54:08.178Z,13.97
2019-02-05T08:00:45.923Z,15.03
2019-02-05T08:03:16.726Z,13.27
2019-02-05T08:09:39.894Z,14.80
2019-02-05T08:12:31.009Z,15.27
2019-02-05T08:15:09.974Z,15.27
2019-02-05T08:18:09.934Z,19.60
2019-02-05T08:23:09.173Z,22.13
2019-02-05T08:24:01.410Z,14.03
2019-02-05T08:26:32.612Z,17.20
2019-02-05T08:33:16.879Z,14.27
2019-02-05T08:42:17.815Z,16.23
2019-02-05T08:46:16.614Z,15.23
2019-02-05T08:52:44.055Z,19.50
2019-02-05T08:55:15.764Z,18.80
2019-02-05T08:57:46.643Z,18.57
2019-02-05T09:01:19.279Z,62.47
2019-02-05T09:04:51.447Z,50.20
2019-02-05T09:12:10.039Z,26.93
2019-02-05T09:15:39.858Z,106.33
2019-02-05T09:27:57.462Z,54.43
2019-02-05T09:35:08.315Z,21.70
2019-02-05T09:37:36.264Z,32.77
2019-02-05T09:40:54.577Z,22.63
2019-02-05T09:43:25.320Z,19.63
2019-02-05T09:46:22.006Z,20.17
2019-02-05T09:49:03.761Z,34.07
2019-02-05T09:52:48.772Z,21.53
2019-02-05T09:55:47.782Z,30.67
2019-02-05T09:58:53.784Z,21.37
2019-02-05T10:11:49.899Z,29.03
2019-02-05T10:14:23.181Z,26.30
2019-02-05T10:16:54.399Z,31.10
2019-02-05T10:26:01.932Z,61.30
2019-02-05T10:29:08.201Z,41.60
2019-02-05T10:31:38.566Z,51.30
2019-02-05T10:34:08.910Z,44.60
2019-02-05T10:36:39.749Z,27.20
2019-02-05T10:50:44.585Z,23.07
2019-02-05T10:53:14.881Z,25.77
2019-02-05T10:55:45.382Z,33.97
2019-02-05T10:58:16.441Z,33.53
2019-02-05T11:00:47.229Z,36.50
2019-02-05T11:03:17.695Z,20.40
2019-02-05T11:12:44.205Z,22.83
2019-02-05T11:15:17.071Z,28.87
2019-02-05T11:17:47.360Z,32.07
2019-02-05T11:20:19.828Z,42.23
2019-02-05T11:34:05.107Z,41.43
2019-02-05T11:37:32.479Z,48.10
2019-02-05T11:40:56.380Z,115.30
2019-02-05T11:42:55.571Z,54.30
2019-02-05T11:45:25.941Z,146.10
2019-02-05T11:47:56.530Z,46.63
2019-02-05T11:50:28.461Z,102.07
2019-02-05T11:57:05.247Z,29.50
2019-02-05T11:59:49.503Z,27.83
2019-02-05T12:02:27.802Z,34.30
2019-02-05T12:04:58.231Z,24.37
2019-02-05T12:07:28.657Z,32.37
2019-02-05T12:13:23.579Z,51.80
2019-02-05T12:15:53.872Z,36.57
2019-02-05T12:18:24.478Z,28.90
2019-02-05T12:20:54.808Z,29.60
2019-02-05T12:24:16.565Z,23.83
2019-02-05T12:27:28.659Z,16.60
2019-02-05T12:30:45.721Z,26.50
2019-02-05T12:33:59.883Z,44.13
2019-02-05T12:36:57.542Z,33.83
2019-02-05T12:39:28.202Z,33.13
2019-02-05T12:41:58.742Z,43.10
2019-02-05T12:44:29.566Z,35.03
2019-02-05T12:47:00.139Z,48.33
2019-02-05T13:06:37.427Z,23.20
2019-02-05T13:09:41.736Z,20.57
2019-02-05T13:16:02.417Z,23.17
2019-02-05T13:21:28.628Z,21.50
2019-02-05T13:23:59.040Z,23.03
2019-02-05T13:26:29.322Z,26.37
2019-02-05T13:28:59.641Z,24.77
2019-02-05T13:32:47.562Z,24.50
2019-02-05T13:35:47.401Z,24.27
2019-02-05T13:38:36.185Z,26.03
2019-02-05T13:41:41.311Z,24.80
2019-02-05T13:44:39.171Z,23.87
2019-02-05T13:47:43.886Z,23.10
2019-02-05T13:51:08.582Z,22.23
2019-02-05T13:54:00.233Z,22.57
2019-02-05T13:56:56.204Z,20.43
2019-02-05T13:59:23.782Z,22.13
2019-02-05T14:01:54.595Z,21.80
2019-02-05T14:04:24.877Z,20.77
2019-02-05T14:06:55.864Z,23.73
2019-02-05T14:09:26.352Z,23.70
2019-02-05T14:11:56.832Z,19.37
2019-02-05T14:18:54.658Z,21.70
2019-02-05T14:21:15.252Z,25.97
2019-02-05T14:23:45.590Z,22.37
2019-02-05T14:30:19.110Z,19.63
2019-02-05T14:33:40.599Z,25.60
2019-02-05T14:36:58.544Z,24.60
2019-02-05T14:39:28.976Z,24.17
2019-02-05T14:41:59.266Z,25.77
2019-02-05T14:44:29.675Z,22.73
2019-02-05T14:47:00.031Z,23.40
2019-02-05T14:49:30.126Z,24.43
2019-02-05T14:52:00.465Z,24.87
2019-02-05T14:56:02.637Z,23.73
2019-02-05T15:08:52.087Z,19.57
2019-02-05T15:11:44.321Z,20.10
2019-02-05T15:14:43.094Z,23.43
2019-02-05T15:17:38.578Z,17.80
2019-02-05T15:20:50.521Z,19.70
2019-02-05T15:29:57.485Z,24.80
2019-02-05T15:33:31.599Z,17.20
2019-02-05T15:39:45.336Z,22.53
2019-02-05T15:42:51.042Z,25.30
2019-02-05T15:46:04.172Z,23.63
2019-02-05T15:48:49.206Z,24.83
2019-02-05T15:51:37.965Z,21.30
2019-02-05T15:54:47.715Z,21.73
2019-02-05T15:57:33.919Z,25.23
2019-02-05T16:00:40.272Z,23.83
2019-02-05T16:07:21.137Z,21.27
2019-02-05T16:09:48.910Z,23.07
2019-02-05T16:12:19.242Z,24.50
2019-02-05T16:14:49.587Z,30.60
2019-02-05T16:17:19.883Z,31.23
2019-02-05T16:21:16.422Z,35.13
2019-02-05T16:24:04.449Z,88.63
2019-02-05T16:26:42.332Z,36.37
2019-02-05T16:29:26.435Z,34.47
2019-02-05T16:32:22.044Z,34.80
2019-02-05T16:35:22.407Z,33.57
2019-02-05T16:38:07.553Z,43.00
2019-02-05T16:41:19.089Z,67.50
2019-02-05T16:44:06.166Z,27.80
2019-02-05T16:47:06.014Z,62.77
2019-02-05T16:49:46.411Z,46.77
2019-02-05T16:55:12.868Z,34.20
2019-02-05T16:57:47.968Z,29.13
2019-02-05T17:00:23.586Z,60.83
2019-02-05T17:02:53.948Z,52.80
2019-02-05T17:05:49.681Z,36.73
2019-02-05T17:11:59.511Z,33.27
2019-02-05T17:14:34.818Z,30.97
2019-02-05T17:17:22.560Z,31.33
2019-02-05T17:20:06.219Z,27.77
2019-02-05T17:22:53.674Z,32.33
2019-02-05T17:28:29.612Z,35.10
2019-02-05T17:31:37.921Z,35.30
2019-02-05T17:34:34.623Z,28.03
2019-02-05T17:37:15.950Z,30.10
2019-02-05T17:39:59.374Z,31.73
2019-02-05T17:42:43.326Z,29.30
2019-02-05T17:45:48.355Z,43.10
2019-02-05T17:51:57.253Z,36.20
2019-02-05T17:54:27.082Z,34.27
2019-02-05T17:57:42.313Z,33.50
2019-02-05T18:00:37.543Z,30.77
2019-02-05T18:03:18.664Z,38.20
2019-02-05T18:06:03.675Z,33.30
2019-02-05T18:08:54.933Z,41.23
2019-02-05T18:11:42.947Z,34.50
2019-02-05T18:14:28.954Z,53.70
2019-02-05T18:17:24.778Z,31.03
2019-02-05T18:20:06.656Z,32.87
2019-02-05T18:23:15.515Z,46.50
2019-02-05T18:26:04.084Z,54.33
2019-02-05T18:29:03.018Z,37.93
2019-02-05T18:31:43.860Z,33.20
2019-02-05T18:34:21.198Z,115.67
2019-02-05T18:37:28.437Z,74.40
2019-02-05T18:39:39.966Z,59.37
2019-02-05T18:43:07.843Z,70.60
2019-02-05T18:46:15.197Z,44.93
2019-02-05T18:49:04.279Z,82.87
2019-02-05T18:51:27.919Z,71.10
2019-02-05T18:54:01.278Z,67.87
2019-02-05T18:56:39.031Z,41.47
2019-02-05T18:59:09.494Z,39.80
2019-02-05T19:01:40.106Z,40.07
2019-02-05T19:04:10.543Z,43.10
2019-02-05T19:06:41.102Z,35.83
2019-02-05T19:09:47.869Z,43.47
2019-02-05T19:12:30.431Z,39.20
2019-02-05T19:15:11.610Z,37.33
2019-02-05T19:18:01.654Z,62.97
2019-02-05T19:20:47.201Z,50.70
2019-02-05T19:24:00.229Z,42.60
2019-02-05T19:26:29.734Z,179.53
2019-02-05T19:29:18.987Z,42.53
2019-02-05T19:31:59.079Z,40.90
2019-02-05T19:34:45.433Z,41.13
2019-02-05T19:37:33.601Z,45.83
2019-02-05T19:40:21.917Z,53.37
2019-02-05T19:43:40.451Z,49.40
2019-02-05T19:46:31.096Z,47.83
2019-02-05T19:49:06.632Z,43.10
2019-02-05T19:51:37.378Z,46.50
2019-02-05T19:54:08.094Z,50.80
2019-02-05T19:56:41.549Z,47.80
2019-02-05T19:59:12.628Z,45.13
2019-02-05T20:01:43.333Z,45.73
2019-02-05T20:05:07.818Z,46.60
2019-02-05T20:08:46.459Z,45.57
2019-02-05T20:10:52.774Z,47.63
2019-02-05T20:13:40.455Z,48.37
2019-02-05T20:16:23.067Z,100.47
2019-02-05T20:19:06.488Z,56.90
2019-02-05T20:21:55.924Z,47.57
2019-02-05T20:27:58.772Z,48.30
2019-02-05T20:30:29.349Z,45.13
2019-02-05T20:32:59.947Z,42.57
2019-02-05T20:35:30.367Z,48.03
2019-02-05T20:38:00.929Z,42.73
2019-02-05T20:40:31.455Z,41.53
2019-02-05T20:43:02.683Z,41.17
2019-02-05T20:45:32.933Z,41.63
2019-02-05T20:48:03.279Z,45.93
2019-02-05T20:50:33.663Z,40.77
2019-02-05T20:53:13.463Z,48.67
2019-02-05T20:55:40.098Z,55.73
2019-02-05T20:58:19.316Z,56.63
2019-02-05T21:00:49.778Z,104.80
2019-02-05T21:03:20.620Z,54.47
2019-02-05T21:05:50.940Z,72.67
2019-02-05T21:08:21.364Z,49.23
2019-02-05T21:10:52.383Z,50.40
2019-02-05T21:13:22.880Z,94.57
2019-02-05T21:16:04.581Z,48.63
2019-02-05T21:18:46.611Z,45.40
2019-02-05T21:21:48.604Z,41.30
2019-02-05T21:25:34.584Z,42.77
2019-02-05T21:31:33.694Z,42.73
2019-02-05T21:34:25.128Z,47.03
2019-02-05T21:37:25.010Z,43.03
2019-02-05T21:40:05.655Z,43.67
2019-02-05T21:42:49.439Z,42.53
2019-02-05T21:49:04.007Z,47.27
2019-02-05T21:52:04.032Z,47.93
2019-02-05T21:55:07.890Z,43.67
2019-02-05T21:58:02.164Z,43.83
2019-02-05T22:01:08.084Z,46.23
2019-02-05T22:03:38.573Z,44.63
2019-02-05T22:07:05.045Z,45.33
2019-02-05T22:10:38.474Z,44.00
2019-02-05T22:14:00.609Z,52.10
2019-02-05T22:20:17.404Z,45.17
2019-02-05T22:22:47.842Z,47.53
2019-02-05T22:25:22.397Z,48.40
2019-02-05T22:28:06.367Z,46.37
2019-02-05T22:30:57.228Z,45.87
2019-02-05T22:33:35.671Z,46.10
2019-02-05T22:36:12.924Z,58.27
2019-02-05T22:39:50.442Z,59.73
2019-02-05T22:43:14.941Z,84.40
2019-02-05T22:50:20.061Z,50.90
2019-02-05T22:53:25.349Z,43.50
2019-02-05T22:56:04.666Z,41.20
2019-02-05T23:03:34.280Z,54.13
2019-02-05T23:18:24.746Z,42.60
2019-02-05T23:21:32.844Z,40.93
2019-02-05T23:24:42.604Z,38.63
2019-02-05T23:27:36.952Z,38.93
2019-02-05T23:30:45.723Z,42.07
2019-02-05T23:37:26.774Z,38.83
2019-02-05T23:39:56.733Z,38.80
2019-02-05T23:42:27.490Z,42.27
2019-02-05T23:44:58.287Z,41.23
2019-02-05T23:47:28.596Z,37.70
2019-02-05T23:49:59.012Z,40.73
2019-02-05T23:52:29.424Z,41.67
2019-02-05T23:55:00.377Z,42.13
2019-02-05T23:57:30.695Z,40.47
